createdAt,value
2022-08-01T00:02:45.529Z,100247.11
2022-08-01T00:05:51.941Z,100246.19
2022-08-01T00:08:59.026Z,100246.19
2022-08-01T00:12:04.871Z,100253.65
2022-08-01T00:15:10.825Z,100250.34
2022-08-01T00:18:17.910Z,100250.94
2022-08-01T00:21:23.873Z,100250.64
2022-08-01T00:24:30.868Z,100253.71
2022-08-01T00:27:40.503Z,100252.66
2022-08-01T00:30:47.478Z,100259.59
2022-08-01T00:33:52.928Z,100258.80
2022-08-01T00:37:00.110Z,100263.28
2022-08-01T00:40:06.995Z,100259.41
2022-08-01T00:43:12.854Z,100262.72
2022-08-01T00:46:21.469Z,100253.87
2022-08-01T00:49:26.533Z,100257.73
2022-08-01T00:52:32.572Z,100257.73
2022-08-01T00:55:38.730Z,100248.78
2022-08-01T00:58:44.278Z,100245.39
2022-08-01T01:01:52.329Z,100242.26
2022-08-01T01:05:00.101Z,100248.87
2022-08-01T01:08:19.881Z,100244.64
2022-08-01T01:11:33.209Z,100236.23
2022-08-01T01:15:12.042Z,100240.48
2022-08-01T01:18:28.128Z,100235.47
2022-08-01T01:21:39.127Z,100229.92
2022-08-01T01:24:51.631Z,100232.69
2022-08-01T01:28:21.541Z,100237.23
2022-08-01T01:31:30.065Z,100237.86
2022-08-01T01:34:37.765Z,100224.29
2022-08-01T01:37:45.085Z,100229.84
2022-08-01T01:40:52.755Z,100235.91
2022-08-01T01:43:52.354Z,100237.63
2022-08-01T01:46:58.327Z,100235.68
2022-08-01T01:50:04.171Z,100242.61
2022-08-01T01:53:15.151Z,100243.47
2022-08-01T01:56:18.027Z,100250.70
2022-08-01T01:59:25.787Z,100262.12
2022-08-01T02:02:30.486Z,100274.37
2022-08-01T02:05:37.751Z,100264.66
2022-08-01T02:08:44.228Z,100258.80
2022-08-01T02:11:59.196Z,100253.57
2022-08-01T02:15:01.369Z,100250.03
2022-08-01T02:18:06.819Z,100258.71
2022-08-01T02:21:12.066Z,100254.17
2022-08-01T02:24:23.123Z,100257.40
2022-08-01T02:27:41.492Z,100259.23
2022-08-01T02:30:51.436Z,100268.80
2022-08-01T02:34:01.035Z,100268.63
2022-08-01T02:37:07.765Z,100266.47
2022-08-01T02:40:14.369Z,100269.86
2022-08-01T02:43:19.809Z,100255.42
2022-08-01T02:46:28.297Z,100249.34
2022-08-01T02:49:35.633Z,100248.81
2022-08-01T02:52:43.234Z,100249.11
2022-08-01T02:55:49.654Z,100247.72
2022-08-01T02:58:56.444Z,100241.31
2022-08-01T03:02:03.568Z,100247.72
2022-08-01T03:05:10.553Z,100237.00
2022-08-01T03:08:17.581Z,100234.07
2022-08-01T03:11:24.165Z,100229.38
2022-08-01T03:14:32.574Z,100234.98
2022-08-01T03:17:39.768Z,100239.23
2022-08-01T03:20:47.560Z,100236.84
2022-08-01T03:23:55.240Z,100243.84
2022-08-01T03:27:01.771Z,100246.56
2022-08-01T03:30:07.199Z,100257.05
2022-08-01T03:33:14.640Z,100259.38
2022-08-01T03:36:21.255Z,100280.91
2022-08-01T03:39:27.260Z,100295.67
2022-08-01T03:42:39.436Z,100311.02
2022-08-01T03:45:54.038Z,100319.75
2022-08-01T03:49:03.915Z,100313.98
2022-08-01T03:52:10.199Z,100322.15
2022-08-01T03:55:20.358Z,100322.29
2022-08-01T03:58:26.000Z,100324.14
2022-08-01T04:01:32.661Z,100312.06
2022-08-01T04:04:40.280Z,100290.41
2022-08-01T04:07:48.618Z,100292.09
2022-08-01T04:10:56.512Z,100286.78
2022-08-01T04:14:03.577Z,100299.26
2022-08-01T04:17:12.722Z,100303.42
2022-08-01T04:20:19.189Z,100294.64
2022-08-01T04:23:25.359Z,100280.54
2022-08-01T04:26:32.746Z,100278.53
2022-08-01T04:29:41.270Z,100267.37
2022-08-01T04:32:53.312Z,100270.38
2022-08-01T04:36:04.762Z,100278.70
2022-08-01T04:39:16.765Z,100267.27
2022-08-01T04:42:28.201Z,100268.89
2022-08-01T04:45:29.714Z,100259.98
2022-08-01T04:48:38.349Z,100264.80
2022-08-01T04:51:43.861Z,100273.45
2022-08-01T04:54:54.809Z,100263.13
2022-08-01T04:58:05.126Z,100258.20
2022-08-01T05:01:15.740Z,100268.83
2022-08-01T05:04:21.451Z,100283.68
2022-08-01T05:07:29.678Z,100276.75
2022-08-01T05:10:35.587Z,100268.20
2022-08-01T05:13:44.050Z,100249.11
2022-08-01T05:16:51.173Z,100234.78
2022-08-01T05:19:59.584Z,100219.74
2022-08-01T05:23:06.087Z,100208.27
2022-08-01T05:26:13.862Z,100205.95
2022-08-01T05:29:21.091Z,100209.78
2022-08-01T05:32:27.987Z,100212.14
2022-08-01T05:35:48.351Z,100225.22
2022-08-01T05:38:44.506Z,100226.90
2022-08-01T05:41:50.588Z,100216.35
2022-08-01T05:44:58.461Z,100214.63
2022-08-01T05:48:06.073Z,100199.41
2022-08-01T05:51:12.716Z,100203.34
2022-08-01T05:54:19.369Z,100204.68
2022-08-01T05:57:27.737Z,100205.57
2022-08-01T06:00:35.792Z,100209.68
2022-08-01T06:03:40.899Z,100204.14
2022-08-01T06:06:49.083Z,100205.55
2022-08-01T06:09:56.577Z,100203.68
2022-08-01T06:13:02.383Z,100207.65
2022-08-01T06:16:08.848Z,100210.84
2022-08-01T06:19:15.107Z,100211.45
2022-08-01T06:26:09.749Z,100231.42
2022-08-01T06:29:16.114Z,100244.55
2022-08-01T06:32:26.905Z,100239.10
2022-08-01T06:35:30.774Z,100235.58
2022-08-01T06:38:37.104Z,100240.66
2022-08-01T06:41:44.306Z,100223.30
2022-08-01T06:44:53.350Z,100233.69
2022-08-01T06:48:00.049Z,100227.67
2022-08-01T06:51:20.065Z,100216.86
2022-08-01T06:54:25.061Z,100213.58
2022-08-01T06:57:30.833Z,100211.81
2022-08-01T07:00:40.904Z,100217.05
2022-08-01T07:03:54.535Z,100230.47
2022-08-01T07:06:56.375Z,100230.19
2022-08-01T07:10:03.382Z,100224.91
2022-08-01T07:13:09.851Z,100230.61
2022-08-01T07:16:16.929Z,100224.06
2022-08-01T07:19:25.538Z,100234.83
2022-08-01T07:22:34.543Z,100237.61
2022-08-01T07:25:42.239Z,100254.34
2022-08-01T07:28:49.717Z,100267.12
2022-08-01T07:31:55.038Z,100259.55
2022-08-01T07:35:02.294Z,100248.99
2022-08-01T07:38:12.825Z,100257.67
2022-08-01T07:41:20.349Z,100261.55
2022-08-01T07:44:30.066Z,100261.55
2022-08-01T07:47:44.285Z,100265.08
2022-08-01T07:50:51.088Z,100262.78
2022-08-01T07:53:56.044Z,100255.42
2022-08-01T07:57:01.213Z,100260.13
2022-08-01T08:00:07.806Z,100246.42
2022-08-01T08:03:13.130Z,100241.07
2022-08-01T08:06:33.340Z,100241.07
2022-08-01T08:09:38.752Z,100238.24
2022-08-01T08:12:44.805Z,100243.81
2022-08-01T08:15:51.585Z,100246.47
2022-08-01T08:18:57.337Z,100249.12
2022-08-01T08:22:03.156Z,100247.57
2022-08-01T08:25:08.855Z,100242.49
2022-08-01T08:28:14.445Z,100242.45
2022-08-01T08:31:25.059Z,100242.37
2022-08-01T08:34:32.121Z,100235.38
2022-08-01T08:37:42.777Z,100224.91
2022-08-01T08:40:47.868Z,100221.92
2022-08-01T08:43:54.255Z,100215.28
2022-08-01T08:47:05.716Z,100203.37
2022-08-01T08:50:14.018Z,100189.64
2022-08-01T08:53:21.707Z,100183.13
2022-08-01T08:56:29.121Z,100177.44
2022-08-01T08:59:34.438Z,100174.05
2022-08-01T09:03:03.121Z,100169.11
2022-08-01T09:06:11.330Z,100174.47
2022-08-01T09:09:17.976Z,100174.73
2022-08-01T09:12:23.847Z,100175.44
2022-08-01T09:15:33.861Z,100179.94
2022-08-01T09:18:56.738Z,100181.45
2022-08-01T09:22:20.884Z,100170.86
2022-08-01T09:25:29.649Z,100181.68
2022-08-01T09:28:37.506Z,100189.80
2022-08-01T09:31:47.590Z,100192.00
2022-08-01T09:34:54.448Z,100195.76
2022-08-01T09:38:02.645Z,100209.31
2022-08-01T09:41:12.036Z,100210.14
2022-08-01T09:44:18.133Z,100214.11
2022-08-01T09:47:25.493Z,100205.05
2022-08-01T09:50:31.115Z,100206.19
2022-08-01T09:53:38.182Z,100207.67
2022-08-01T09:56:44.154Z,100205.47
2022-08-01T10:00:01.142Z,100199.78
2022-08-01T10:03:10.045Z,100195.21
2022-08-01T10:06:09.971Z,100176.66
2022-08-01T10:09:17.966Z,100174.07
2022-08-01T10:12:25.861Z,100182.67
2022-08-01T10:15:37.071Z,100195.98
2022-08-01T10:18:35.085Z,100193.66
2022-08-01T10:21:54.716Z,100197.15
2022-08-01T10:24:53.555Z,100201.48
2022-08-01T10:28:01.341Z,100213.16
2022-08-01T10:31:13.205Z,100214.49
2022-08-01T10:34:23.692Z,100212.93
2022-08-01T10:37:32.445Z,100214.16
2022-08-01T10:40:38.454Z,100217.27
2022-08-01T10:43:47.050Z,100222.94
2022-08-01T10:46:59.412Z,100227.72
2022-08-01T10:50:21.943Z,100227.73
2022-08-01T10:53:42.262Z,100222.45
2022-08-01T10:56:39.875Z,100228.09
2022-08-01T10:59:50.093Z,100228.93
2022-08-01T11:03:01.176Z,100223.02
2022-08-01T11:06:06.993Z,100227.80
2022-08-01T11:09:16.498Z,100232.86
2022-08-01T11:12:30.453Z,100230.05
2022-08-01T11:15:49.948Z,100225.52
2022-08-01T11:18:46.419Z,100223.26
2022-08-01T11:22:14.627Z,100225.48
2022-08-01T11:26:06.012Z,100231.66
2022-08-01T11:28:36.437Z,100224.64
2022-08-01T11:31:45.313Z,100237.88
2022-08-01T11:35:14.075Z,100254.71
2022-08-01T11:38:41.528Z,100252.74
2022-08-01T11:41:50.038Z,100250.77
2022-08-01T11:45:03.876Z,100249.63
2022-08-01T11:48:10.636Z,100243.19
2022-08-01T11:51:21.522Z,100247.71
2022-08-01T11:54:34.742Z,100247.12
2022-08-01T11:57:42.514Z,100254.71
2022-08-01T12:00:53.789Z,100253.33
2022-08-01T12:04:01.847Z,100253.08
2022-08-01T12:07:07.961Z,100255.33
2022-08-01T12:10:32.272Z,100251.67
2022-08-01T12:13:40.848Z,100260.37
2022-08-01T12:16:48.403Z,100263.44
2022-08-01T12:19:54.697Z,100251.06
2022-08-01T12:23:00.742Z,100256.41
2022-08-01T12:26:25.821Z,100251.35
2022-08-01T12:29:16.809Z,100248.25
2022-08-01T12:32:47.778Z,100250.51
2022-08-01T12:35:55.729Z,100251.91
2022-08-01T12:39:06.839Z,100247.70
2022-08-01T12:42:13.350Z,100244.03
2022-08-01T12:45:20.437Z,100242.38
2022-08-01T12:48:28.331Z,100226.67
2022-08-01T12:51:33.039Z,100224.98
2022-08-01T12:54:38.757Z,100218.84
2022-08-01T12:57:45.135Z,100225.28
2022-08-01T13:00:52.799Z,100216.58
2022-08-01T13:04:14.855Z,100211.54
2022-08-01T13:07:22.191Z,100207.02
2022-08-01T13:10:28.348Z,100207.83
2022-08-01T13:13:34.129Z,100208.09
2022-08-01T13:16:56.295Z,100212.30
2022-08-01T13:20:02.353Z,100204.41
2022-08-01T13:23:09.557Z,100203.22
2022-08-01T13:26:17.824Z,100201.79
2022-08-01T13:29:28.438Z,100205.73
2022-08-01T13:32:38.394Z,100193.05
2022-08-01T13:35:44.475Z,100195.30
2022-08-01T13:39:08.080Z,100199.25
2022-08-01T13:42:18.413Z,100189.41
2022-08-01T13:45:22.483Z,100185.20
2022-08-01T13:48:32.319Z,100183.80
2022-08-01T13:51:39.605Z,100180.42
2022-08-01T13:54:46.940Z,100179.02
2022-08-01T13:57:52.622Z,100175.64
2022-08-01T14:01:00.665Z,100178.50
2022-08-01T14:04:11.502Z,100179.91
2022-08-01T14:07:21.158Z,100173.73
2022-08-01T14:10:28.695Z,100175.70
2022-08-01T14:13:36.896Z,100164.70
2022-08-01T14:16:42.001Z,100158.55
2022-08-01T14:19:48.263Z,100156.00
2022-08-01T14:22:56.154Z,100148.68
2022-08-01T14:26:08.201Z,100145.27
2022-08-01T14:29:09.123Z,100129.55
2022-08-01T14:32:15.524Z,100130.63
2022-08-01T14:35:23.276Z,100131.45
2022-08-01T14:38:33.557Z,100127.27
2022-08-01T14:41:42.122Z,100119.39
2022-08-01T14:44:49.761Z,100113.18
2022-08-01T14:47:57.288Z,100110.08
2022-08-01T14:51:03.810Z,100112.10
2022-08-01T14:54:10.024Z,100116.60
2022-08-01T14:57:15.742Z,100113.81
2022-08-01T15:00:23.931Z,100119.17
2022-08-01T15:03:30.900Z,100112.47
2022-08-01T15:06:36.767Z,100119.78
2022-08-01T15:09:43.592Z,100107.72
2022-08-01T15:12:52.617Z,100106.89
2022-08-01T15:16:00.022Z,100114.56
2022-08-01T15:19:06.186Z,100111.77
2022-08-01T15:22:17.076Z,100108.97
2022-08-01T15:25:41.171Z,100109.56
2022-08-01T15:28:42.976Z,100102.01
2022-08-01T15:31:50.395Z,100099.52
2022-08-01T15:35:00.047Z,100105.16
2022-08-01T15:38:07.135Z,100097.33
2022-08-01T15:41:16.081Z,100095.08
2022-08-01T15:44:21.864Z,100099.05
2022-08-01T15:47:28.394Z,100104.91
2022-08-01T15:50:34.539Z,100101.26
2022-08-01T15:53:40.278Z,100099.61
2022-08-01T15:56:48.238Z,100105.50
2022-08-01T15:59:57.833Z,100102.14
2022-08-01T16:03:00.240Z,100099.90
2022-08-01T16:06:07.725Z,100099.34
2022-08-01T16:09:19.215Z,100087.26
2022-08-01T16:12:20.872Z,100093.68
2022-08-01T16:15:33.558Z,100088.60
2022-08-01T16:18:33.794Z,100084.38
2022-08-01T16:21:39.814Z,100086.55
2022-08-01T16:24:44.871Z,100092.70
2022-08-01T16:27:50.322Z,100094.29
2022-08-01T16:31:14.910Z,100094.24
2022-08-01T16:34:05.187Z,100093.09
2022-08-01T16:37:11.647Z,100095.28
2022-08-01T16:40:17.621Z,100087.95
2022-08-01T16:43:24.199Z,100088.46
2022-08-01T16:46:29.626Z,100099.61
2022-08-01T16:49:38.236Z,100102.88
2022-08-01T16:52:44.663Z,100106.45
2022-08-01T16:55:53.953Z,100116.45
2022-08-01T16:59:00.753Z,100112.48
2022-08-01T17:02:07.021Z,100113.47
2022-08-01T17:05:13.526Z,100119.80
2022-08-01T17:08:24.406Z,100124.48
2022-08-01T17:11:33.329Z,100114.28
2022-08-01T17:14:40.730Z,100114.16
2022-08-01T17:17:47.583Z,100121.89
2022-08-01T17:20:54.100Z,100111.17
2022-08-01T17:24:00.426Z,100106.01
2022-08-01T17:27:12.744Z,100110.05
2022-08-01T17:30:16.364Z,100116.08
2022-08-01T17:33:22.247Z,100119.66
2022-08-01T17:36:28.528Z,100124.33
2022-08-01T17:39:38.996Z,100122.58
2022-08-01T17:42:42.160Z,100119.38
2022-08-01T17:45:50.988Z,100118.17
2022-08-01T17:48:56.161Z,100118.91
2022-08-01T17:52:02.451Z,100121.08
2022-08-01T17:55:55.606Z,100119.86
2022-08-01T17:58:49.670Z,100115.63
2022-08-01T18:01:27.842Z,100120.25
2022-08-01T18:04:35.760Z,100116.96
2022-08-01T18:08:00.474Z,100120.31
2022-08-01T18:10:51.661Z,100109.34
2022-08-01T18:13:59.799Z,100109.22
2022-08-01T18:17:06.016Z,100107.43
2022-08-01T18:20:13.103Z,100112.34
2022-08-01T18:23:19.761Z,100118.14
2022-08-01T18:26:25.428Z,100123.95
2022-08-01T18:29:47.099Z,100131.71
2022-08-01T18:32:37.939Z,100143.11
2022-08-01T18:35:51.908Z,100139.72
2022-08-01T18:38:50.618Z,100139.94
2022-08-01T18:42:00.765Z,100149.40
2022-08-01T18:45:06.792Z,100146.55
2022-08-01T18:48:12.361Z,100148.73
2022-08-01T18:51:18.210Z,100142.59
2022-08-01T18:54:24.078Z,100142.24
2022-08-01T18:57:29.329Z,100150.50
2022-08-01T19:00:34.181Z,100146.57
2022-08-01T19:03:42.802Z,100141.55
2022-08-01T19:06:47.949Z,100148.50
2022-08-01T19:09:55.457Z,100153.50
2022-08-01T19:13:03.313Z,100154.03
2022-08-01T19:16:09.883Z,100141.25
2022-08-01T19:19:27.450Z,100149.06
2022-08-01T19:22:28.875Z,100142.94
2022-08-01T19:25:34.158Z,100144.83
2022-08-01T19:28:41.171Z,100147.61
2022-08-01T19:31:49.215Z,100152.92
2022-08-01T19:35:00.375Z,100143.75
2022-08-01T19:38:07.876Z,100155.07
2022-08-01T19:41:15.058Z,100155.61
2022-08-01T19:44:22.365Z,100152.00
2022-08-01T19:47:53.991Z,100140.80
2022-08-01T19:50:35.256Z,100152.66
2022-08-01T19:53:41.712Z,100142.23
2022-08-01T19:56:52.529Z,100142.92
2022-08-01T20:00:02.247Z,100136.95
2022-08-01T20:03:08.620Z,100138.53
2022-08-01T20:06:17.774Z,100138.38
2022-08-01T20:09:24.737Z,100126.40
2022-08-01T20:12:36.415Z,100128.00
2022-08-01T20:15:42.828Z,100123.97
2022-08-01T20:18:49.392Z,100114.19
2022-08-01T20:22:04.128Z,100092.44
2022-08-01T20:25:10.940Z,100075.69
2022-08-01T20:28:18.236Z,100077.86
2022-08-01T20:31:25.205Z,100066.45
2022-08-01T20:34:37.171Z,100068.09
2022-08-01T20:38:06.283Z,100063.13
2022-08-01T20:40:54.783Z,100062.56
2022-08-01T20:44:02.602Z,100067.84
2022-08-01T20:47:10.002Z,100061.98
2022-08-01T20:50:54.386Z,100061.92
2022-08-01T20:53:43.213Z,100067.23
2022-08-01T20:57:13.306Z,100061.92
2022-08-01T21:00:21.776Z,100063.81
2022-08-01T21:03:37.145Z,100072.64
2022-08-01T21:06:47.825Z,100064.02
2022-08-01T21:09:53.814Z,100053.97
2022-08-01T21:13:20.971Z,100052.47
2022-08-01T21:16:26.846Z,100045.69
2022-08-01T21:19:38.630Z,100036.06
2022-08-01T21:22:58.792Z,100030.19
2022-08-01T21:26:03.931Z,100047.67
2022-08-01T21:29:09.013Z,100049.89
2022-08-01T21:32:21.068Z,100046.33
2022-08-01T21:35:29.693Z,100045.47
2022-08-01T21:38:35.334Z,100046.86
2022-08-01T21:42:04.724Z,100049.11
2022-08-01T21:44:48.690Z,100036.59
2022-08-01T21:47:55.932Z,100031.82
2022-08-01T21:51:19.747Z,100028.22
2022-08-01T21:54:55.055Z,100022.30
2022-08-01T21:58:29.800Z,100028.89
2022-08-01T22:01:51.553Z,100042.50
2022-08-01T22:05:13.507Z,100049.12
2022-08-01T22:08:21.388Z,100053.00
2022-08-01T22:11:28.900Z,100056.07
2022-08-01T22:14:35.173Z,100046.84
2022-08-01T22:17:41.334Z,100042.38
2022-08-01T22:20:47.886Z,100050.11
2022-08-01T22:23:52.906Z,100043.94
2022-08-01T22:27:00.203Z,100039.23
2022-08-01T22:30:19.549Z,100045.94
2022-08-01T22:33:26.795Z,100041.77
2022-08-01T22:36:33.534Z,100050.39
2022-08-01T22:39:38.169Z,100051.50
2022-08-01T22:43:00.283Z,100045.33
2022-08-01T22:46:22.883Z,100044.19
2022-08-01T22:49:38.542Z,100048.31
2022-08-01T22:52:47.134Z,100054.97
2022-08-01T22:55:59.361Z,100058.20
2022-08-01T22:59:03.127Z,100060.16
2022-08-01T23:02:08.908Z,100053.46
2022-08-01T23:05:19.649Z,100058.36
2022-08-01T23:08:24.472Z,100062.74
2022-08-01T23:11:30.621Z,100064.70
2022-08-01T23:14:35.483Z,100067.77
2022-08-01T23:17:45.807Z,100073.40
2022-08-01T23:20:51.384Z,100078.95
2022-08-01T23:23:57.053Z,100092.84
2022-08-01T23:27:01.911Z,100090.64
2022-08-01T23:30:07.437Z,100098.20
2022-08-01T23:33:14.871Z,100112.09
2022-08-01T23:36:21.946Z,100111.23
2022-08-01T23:39:27.275Z,100115.65
2022-08-01T23:42:34.240Z,100117.84
2022-08-01T23:46:03.247Z,100124.79
2022-08-01T23:48:48.902Z,100124.79
2022-08-01T23:51:56.633Z,100120.06
2022-08-01T23:55:03.458Z,100120.01
2022-08-01T23:58:10.406Z,100108.28
